sensor_id;sensor_type;location;lat;lon;timestamp;pressure;altitude;pressure_sealevel;temperature
49557;BMP280;35462;45.048;7.666;2023-05-02T00:07:10;98810.69;;;15.99
49557;BMP280;35462;45.048;7.666;2023-05-02T00:22:14;98808.88;;;15.96
49557;BMP280;35462;45.048;7.666;2023-05-02T00:37:18;98784.09;;;15.95
49557;BMP280;35462;45.048;7.666;2023-05-02T00:52:22;98771.78;;;15.98
49557;BMP280;35462;45.048;7.666;2023-05-02T01:22:53;98771.44;;;15.87
49557;BMP280;35462;45.048;7.666;2023-05-02T01:37:59;98776.28;;;15.79
49557;BMP280;35462;45.048;7.666;2023-05-02T01:53:06;98773.19;;;15.81
49557;BMP280;35462;45.048;7.666;2023-05-02T02:08:11;98761.91;;;15.77
49557;BMP280;35462;45.048;7.666;2023-05-02T02:23:15;98770.31;;;15.75
49557;BMP280;35462;45.048;7.666;2023-05-02T02:38:25;98783.38;;;15.73
49557;BMP280;35462;45.048;7.666;2023-05-02T03:08:41;98777.16;;;15.76
49557;BMP280;35462;45.048;7.666;2023-05-02T03:23:50;98782.91;;;15.75
49557;BMP280;35462;45.048;7.666;2023-05-02T03:38:54;98775.66;;;15.75
49557;BMP280;35462;45.048;7.666;2023-05-02T03:53:59;98771.94;;;15.73
49557;BMP280;35462;45.048;7.666;2023-05-02T04:09:04;98763.50;;;15.74
49557;BMP280;35462;45.048;7.666;2023-05-02T04:24:12;98771.22;;;15.72
49557;BMP280;35462;45.048;7.666;2023-05-02T04:39:16;98772.81;;;15.70
49557;BMP280;35462;45.048;7.666;2023-05-02T04:54:33;98765.22;;;15.68
49557;BMP280;35462;45.048;7.666;2023-05-02T05:09:37;98786.09;;;15.82
49557;BMP280;35462;45.048;7.666;2023-05-02T05:24:41;98814.16;;;15.87
49557;BMP280;35462;45.048;7.666;2023-05-02T05:39:46;98812.41;;;16.14
49557;BMP280;35462;45.048;7.666;2023-05-02T05:54:52;98818.81;;;16.86
49557;BMP280;35462;45.048;7.666;2023-05-02T06:09:58;98828.69;;;17.78
49557;BMP280;35462;45.048;7.666;2023-05-02T06:25:03;98830.31;;;20.24
49557;BMP280;35462;45.048;7.666;2023-05-02T06:40:08;98821.09;;;22.47
49557;BMP280;35462;45.048;7.666;2023-05-02T06:55:12;98836.16;;;26.53
49557;BMP280;35462;45.048;7.666;2023-05-02T07:10:16;98833.56;;;29.92
49557;BMP280;35462;45.048;7.666;2023-05-02T07:25:20;98837.91;;;27.68
49557;BMP280;35462;45.048;7.666;2023-05-02T07:40:24;98846.13;;;26.26
49557;BMP280;35462;45.048;7.666;2023-05-02T07:55:28;98843.88;;;25.77
49557;BMP280;35462;45.048;7.666;2023-05-02T08:10:33;98838.34;;;25.88
49557;BMP280;35462;45.048;7.666;2023-05-02T08:25:37;98829.78;;;26.08
49557;BMP280;35462;45.048;7.666;2023-05-02T08:40:41;98832.72;;;26.10
49557;BMP280;35462;45.048;7.666;2023-05-02T08:55:45;98863.25;;;26.16
49557;BMP280;35462;45.048;7.666;2023-05-02T09:10:51;98861.66;;;26.02
49557;BMP280;35462;45.048;7.666;2023-05-02T09:25:55;98855.28;;;25.70
49557;BMP280;35462;45.048;7.666;2023-05-02T09:40:59;98853.22;;;25.52
49557;BMP280;35462;45.048;7.666;2023-05-02T09:56:06;98856.09;;;25.31
49557;BMP280;35462;45.048;7.666;2023-05-02T10:11:11;98874.19;;;25.12
49557;BMP280;35462;45.048;7.666;2023-05-02T10:26:16;98882.59;;;25.08
49557;BMP280;35462;45.048;7.666;2023-05-02T10:41:22;98871.13;;;24.86
49557;BMP280;35462;45.048;7.666;2023-05-02T10:56:28;98858.22;;;24.46
49557;BMP280;35462;45.048;7.666;2023-05-02T11:26:44;98809.75;;;24.37
49557;BMP280;35462;45.048;7.666;2023-05-02T11:41:48;98795.69;;;24.39
49557;BMP280;35462;45.048;7.666;2023-05-02T11:56:53;98800.97;;;24.21
49557;BMP280;35462;45.048;7.666;2023-05-02T12:11:58;98789.38;;;24.15
49557;BMP280;35462;45.048;7.666;2023-05-02T12:27:07;98784.97;;;24.06
49557;BMP280;35462;45.048;7.666;2023-05-02T12:42:13;98770.19;;;24.18
49557;BMP280;35462;45.048;7.666;2023-05-02T12:57:21;98775.63;;;24.07
49557;BMP280;35462;45.048;7.666;2023-05-02T13:12:25;98764.13;;;23.85
49557;BMP280;35462;45.048;7.666;2023-05-02T13:27:29;98746.16;;;23.93
49557;BMP280;35462;45.048;7.666;2023-05-02T13:42:33;98738.53;;;23.86
49557;BMP280;35462;45.048;7.666;2023-05-02T13:57:37;98733.59;;;23.90
49557;BMP280;35462;45.048;7.666;2023-05-02T14:12:41;98725.22;;;23.99
49557;BMP280;35462;45.048;7.666;2023-05-02T14:27:45;98713.38;;;24.02
49557;BMP280;35462;45.048;7.666;2023-05-02T14:42:49;98710.47;;;23.89
49557;BMP280;35462;45.048;7.666;2023-05-02T14:57:53;98698.16;;;23.99
49557;BMP280;35462;45.048;7.666;2023-05-02T15:12:57;98701.13;;;23.95
49557;BMP280;35462;45.048;7.666;2023-05-02T15:28:01;98711.00;;;23.93
49557;BMP280;35462;45.048;7.666;2023-05-02T15:43:06;98712.22;;;23.86
49557;BMP280;35462;45.048;7.666;2023-05-02T15:58:11;98727.97;;;23.82
49557;BMP280;35462;45.048;7.666;2023-05-02T16:13:15;98728.22;;;23.79
49557;BMP280;35462;45.048;7.666;2023-05-02T16:28:18;98740.78;;;23.60
49557;BMP280;35462;45.048;7.666;2023-05-02T16:43:23;98748.41;;;23.56
49557;BMP280;35462;45.048;7.666;2023-05-02T16:58:27;98764.63;;;23.56
49557;BMP280;35462;45.048;7.666;2023-05-02T17:13:31;98782.81;;;23.34
49557;BMP280;35462;45.048;7.666;2023-05-02T17:28:35;98795.59;;;23.33
49557;BMP280;35462;45.048;7.666;2023-05-02T17:43:40;98823.38;;;23.28
49557;BMP280;35462;45.048;7.666;2023-05-02T17:58:45;98851.56;;;23.06
49557;BMP280;35462;45.048;7.666;2023-05-02T18:13:49;98875.59;;;22.93
49557;BMP280;35462;45.048;7.666;2023-05-02T18:28:54;98909.84;;;22.65
49557;BMP280;35462;45.048;7.666;2023-05-02T18:43:57;98940.81;;;22.39
49557;BMP280;35462;45.048;7.666;2023-05-02T18:59:01;98971.88;;;22.29
49557;BMP280;35462;45.048;7.666;2023-05-02T19:14:05;99004.88;;;22.13
49557;BMP280;35462;45.048;7.666;2023-05-02T19:29:09;99053.38;;;21.87
49557;BMP280;35462;45.048;7.666;2023-05-02T19:44:14;99085.59;;;21.77
49557;BMP280;35462;45.048;7.666;2023-05-02T19:59:19;99121.44;;;21.43
49557;BMP280;35462;45.048;7.666;2023-05-02T20:14:23;99141.00;;;21.23
49557;BMP280;35462;45.048;7.666;2023-05-02T20:29:27;99158.53;;;21.19
49557;BMP280;35462;45.048;7.666;2023-05-02T20:44:31;99163.50;;;21.06
49557;BMP280;35462;45.048;7.666;2023-05-02T20:59:36;99173.34;;;20.71
49557;BMP280;35462;45.048;7.666;2023-05-02T21:14:40;99180.88;;;20.67
49557;BMP280;35462;45.048;7.666;2023-05-02T21:29:44;99187.03;;;20.45
49557;BMP280;35462;45.048;7.666;2023-05-02T21:44:48;99204.34;;;20.52
49557;BMP280;35462;45.048;7.666;2023-05-02T21:59:52;99202.97;;;20.57
49557;BMP280;35462;45.048;7.666;2023-05-02T22:14:56;99211.69;;;20.52
49557;BMP280;35462;45.048;7.666;2023-05-02T22:30:00;99212.84;;;20.51
49557;BMP280;35462;45.048;7.666;2023-05-02T22:45:05;99234.56;;;20.48
49557;BMP280;35462;45.048;7.666;2023-05-02T23:00:10;99235.31;;;20.25
49557;BMP280;35462;45.048;7.666;2023-05-02T23:15:14;99247.94;;;20.10
49557;BMP280;35462;45.048;7.666;2023-05-02T23:30:19;99249.88;;;20.09
49557;BMP280;35462;45.048;7.666;2023-05-02T23:45:24;99248.59;;;20.05
